sensor_id;sensor_type;location;lat;lon;timestamp;pressure;altitude;pressure_sealevel;temperature;humidity
15932;BME280;8065;49.520;11.284;2023-05-07T00:01:02;97501.03;;;16.88;75.94
15932;BME280;8065;49.520;11.284;2023-05-07T00:03:30;97507.69;;;16.75;75.64
15932;BME280;8065;49.520;11.284;2023-05-07T00:05:57;97509.50;;;16.90;75.52
15932;BME280;8065;49.520;11.284;2023-05-07T00:08:23;97501.97;;;16.99;75.02
15932;BME280;8065;49.520;11.284;2023-05-07T00:10:50;97505.84;;;17.01;75.00
15932;BME280;8065;49.520;11.284;2023-05-07T00:13:16;97505.91;;;17.05;74.78
15932;BME280;8065;49.520;11.284;2023-05-07T00:15:43;97513.66;;;17.10;74.84
15932;BME280;8065;49.520;11.284;2023-05-07T00:18:11;97510.63;;;17.12;74.55
15932;BME280;8065;49.520;11.284;2023-05-07T00:20:37;97506.31;;;17.07;75.20
15932;BME280;8065;49.520;11.284;2023-05-07T00:23:03;97505.97;;;17.09;74.90
15932;BME280;8065;49.520;11.284;2023-05-07T00:25:30;97509.78;;;17.08;75.28
15932;BME280;8065;49.520;11.284;2023-05-07T00:27:56;97508.19;;;17.03;75.68
15932;BME280;8065;49.520;11.284;2023-05-07T00:30:28;97502.03;;;17.02;75.25
15932;BME280;8065;49.520;11.284;2023-05-07T00:32:54;97515.56;;;16.87;75.19
15932;BME280;8065;49.520;11.284;2023-05-07T00:35:22;97511.75;;;16.88;74.86
15932;BME280;8065;49.520;11.284;2023-05-07T00:37:49;97509.84;;;16.88;75.16
15932;BME280;8065;49.520;11.284;2023-05-07T00:40:15;97509.91;;;16.92;74.91
15932;BME280;8065;49.520;11.284;2023-05-07T00:42:41;97515.34;;;16.95;74.60
15932;BME280;8065;49.520;11.284;2023-05-07T00:45:12;97509.06;;;16.88;74.91
15932;BME280;8065;49.520;11.284;2023-05-07T00:47:39;97510.97;;;17.10;74.49
15932;BME280;8065;49.520;11.284;2023-05-07T00:50:06;97513.44;;;16.96;74.69
15932;BME280;8065;49.520;11.284;2023-05-07T00:52:37;97514.97;;;16.97;74.85
15932;BME280;8065;49.520;11.284;2023-05-07T00:55:05;97506.03;;;17.12;73.90
15932;BME280;8065;49.520;11.284;2023-05-07T00:57:33;97506.28;;;17.03;74.28
15932;BME280;8065;49.520;11.284;2023-05-07T01:00:03;97513.25;;;17.08;74.00
15932;BME280;8065;49.520;11.284;2023-05-07T01:02:30;97512.34;;;17.00;74.42
15932;BME280;8065;49.520;11.284;2023-05-07T01:04:56;97503.53;;;17.00;73.75
15932;BME280;8065;49.520;11.284;2023-05-07T01:07:23;97504.34;;;17.04;74.30
15932;BME280;8065;49.520;11.284;2023-05-07T01:09:51;97502.16;;;17.10;74.17
15932;BME280;8065;49.520;11.284;2023-05-07T01:12:18;97505.91;;;17.05;74.27
15932;BME280;8065;49.520;11.284;2023-05-07T01:14:45;97502.94;;;17.10;73.83
15932;BME280;8065;49.520;11.284;2023-05-07T01:17:11;97499.72;;;17.01;74.31
15932;BME280;8065;49.520;11.284;2023-05-07T01:19:38;97503.28;;;16.86;74.53
15932;BME280;8065;49.520;11.284;2023-05-07T01:22:08;97494.94;;;16.91;74.55
15932;BME280;8065;49.520;11.284;2023-05-07T01:24:37;97483.78;;;16.89;74.31
15932;BME280;8065;49.520;11.284;2023-05-07T01:27:04;97488.84;;;16.94;74.16
15932;BME280;8065;49.520;11.284;2023-05-07T01:29:30;97484.31;;;16.98;74.03
15932;BME280;8065;49.520;11.284;2023-05-07T01:31:59;97489.97;;;16.93;74.34
15932;BME280;8065;49.520;11.284;2023-05-07T01:34:28;97500.22;;;16.64;75.31
15932;BME280;8065;49.520;11.284;2023-05-07T01:36:56;97484.78;;;16.81;74.64
15932;BME280;8065;49.520;11.284;2023-05-07T01:39:25;97488.19;;;16.78;75.15
15932;BME280;8065;49.520;11.284;2023-05-07T01:41:53;97496.06;;;16.90;74.05
15932;BME280;8065;49.520;11.284;2023-05-07T01:44:21;97489.19;;;16.69;75.26
15932;BME280;8065;49.520;11.284;2023-05-07T01:46:48;97489.09;;;16.85;74.84
15932;BME280;8065;49.520;11.284;2023-05-07T01:49:15;97489.31;;;16.77;74.66
15932;BME280;8065;49.520;11.284;2023-05-07T01:51:42;97485.63;;;16.85;74.54
15932;BME280;8065;49.520;11.284;2023-05-07T01:54:09;97485.69;;;16.65;75.54
15932;BME280;8065;49.520;11.284;2023-05-07T01:56:35;97489.75;;;16.79;75.28
15932;BME280;8065;49.520;11.284;2023-05-07T01:59:03;97486.06;;;16.87;74.82
15932;BME280;8065;49.520;11.284;2023-05-07T02:01:30;97483.78;;;16.89;74.86
15932;BME280;8065;49.520;11.284;2023-05-07T02:03:57;97475.06;;;16.73;75.82
15932;BME280;8065;49.520;11.284;2023-05-07T02:06:23;97478.59;;;16.57;75.88
15932;BME280;8065;49.520;11.284;2023-05-07T02:08:50;97484.47;;;16.63;75.58
15932;BME280;8065;49.520;11.284;2023-05-07T02:11:16;97488.16;;;16.55;76.12
15932;BME280;8065;49.520;11.284;2023-05-07T02:13:43;97486.09;;;16.48;76.74
15932;BME280;8065;49.520;11.284;2023-05-07T02:16:10;97489.91;;;16.66;75.60
15932;BME280;8065;49.520;11.284;2023-05-07T02:18:39;97486.81;;;16.64;75.94
15932;BME280;8065;49.520;11.284;2023-05-07T02:21:05;97484.47;;;16.63;75.81
15932;BME280;8065;49.520;11.284;2023-05-07T02:23:32;97483.00;;;16.65;75.83
15932;BME280;8065;49.520;11.284;2023-05-07T02:25:58;97484.56;;;16.66;75.79
15932;BME280;8065;49.520;11.284;2023-05-07T02:28:25;97486.59;;;16.73;75.74
15932;BME280;8065;49.520;11.284;2023-05-07T02:30:52;97492.59;;;16.66;76.59
15932;BME280;8065;49.520;11.284;2023-05-07T02:33:20;97479.31;;;16.74;75.74
15932;BME280;8065;49.520;11.284;2023-05-07T02:35:46;97488.56;;;16.76;75.86
15932;BME280;8065;49.520;11.284;2023-05-07T02:38:13;97487.66;;;16.68;75.83
15932;BME280;8065;49.520;11.284;2023-05-07T02:40:39;97486.38;;;16.62;76.47
15932;BME280;8065;49.520;11.284;2023-05-07T02:43:06;97483.00;;;16.65;76.43
15932;BME280;8065;49.520;11.284;2023-05-07T02:45:32;97489.03;;;16.62;76.16
15932;BME280;8065;49.520;11.284;2023-05-07T02:47:58;97485.72;;;16.46;77.03
15932;BME280;8065;49.520;11.284;2023-05-07T02:50:26;97487.25;;;16.47;76.94
15932;BME280;8065;49.520;11.284;2023-05-07T02:52:53;97485.69;;;16.65;75.93
15932;BME280;8065;49.520;11.284;2023-05-07T02:55:19;97483.56;;;16.55;76.53
15932;BME280;8065;49.520;11.284;2023-05-07T02:57:46;97486.00;;;16.41;76.92
15932;BME280;8065;49.520;11.284;2023-05-07T03:00:13;97478.25;;;16.59;76.32
15932;BME280;8065;49.520;11.284;2023-05-07T03:02:40;97479.63;;;16.49;76.85
15932;BME280;8065;49.520;11.284;2023-05-07T03:05:07;97482.72;;;16.51;76.64
15932;BME280;8065;49.520;11.284;2023-05-07T03:07:35;97481.84;;;16.44;76.63
15932;BME280;8065;49.520;11.284;2023-05-07T03:10:02;97474.78;;;16.35;77.38
15932;BME280;8065;49.520;11.284;2023-05-07T03:12:29;97468.88;;;16.49;76.37
15932;BME280;8065;49.520;11.284;2023-05-07T03:14:56;97474.66;;;16.51;76.44
15932;BME280;8065;49.520;11.284;2023-05-07T03:17:22;97477.34;;;16.51;76.65
15932;BME280;8065;49.520;11.284;2023-05-07T03:19:49;97473.25;;;16.57;75.89
15932;BME280;8065;49.520;11.284;2023-05-07T03:22:15;97479.63;;;16.49;76.58
15932;BME280;8065;49.520;11.284;2023-05-07T03:24:43;97478.81;;;16.45;76.69
15932;BME280;8065;49.520;11.284;2023-05-07T03:27:09;97479.16;;;16.44;76.56
15932;BME280;8065;49.520;11.284;2023-05-07T03:29:36;97470.19;;;16.36;76.88
15932;BME280;8065;49.520;11.284;2023-05-07T03:32:03;97482.84;;;16.16;77.83
15932;BME280;8065;49.520;11.284;2023-05-07T03:34:29;97476.06;;;16.22;77.34
15932;BME280;8065;49.520;11.284;2023-05-07T03:36:56;97469.94;;;16.22;77.41
15932;BME280;8065;49.520;11.284;2023-05-07T03:39:22;97476.72;;;16.16;77.71
15932;BME280;8065;49.520;11.284;2023-05-07T03:41:50;97470.66;;;15.99;78.04
15932;BME280;8065;49.520;11.284;2023-05-07T03:44:16;97479.41;;;15.96;78.34
15932;BME280;8065;49.520;11.284;2023-05-07T03:46:43;97469.72;;;16.11;77.71
15932;BME280;8065;49.520;11.284;2023-05-07T03:49:09;97463.72;;;16.18;77.08
15932;BME280;8065;49.520;11.284;2023-05-07T03:51:36;97468.88;;;16.07;77.67
15932;BME280;8065;49.520;11.284;2023-05-07T03:54:02;97471.06;;;16.01;77.55
15932;BME280;8065;49.520;11.284;2023-05-07T03:56:29;97466.28;;;15.91;78.51
15932;BME280;8065;49.520;11.284;2023-05-07T03:58:57;97476.91;;;15.88;78.22
15932;BME280;8065;49.520;11.284;2023-05-07T04:01:24;97473.88;;;15.89;78.21
15932;BME280;8065;49.520;11.284;2023-05-07T04:03:50;97485.31;;;15.86;78.86
15932;BME280;8065;49.520;11.284;2023-05-07T04:06:17;97488.72;;;16.02;77.82
15932;BME280;8065;49.520;11.284;2023-05-07T04:08:43;97490.53;;;15.98;78.42
15932;BME280;8065;49.520;11.284;2023-05-07T04:11:09;97490.25;;;16.03;77.96
15932;BME280;8065;49.520;11.284;2023-05-07T04:13:36;97497.09;;;16.01;78.12
15932;BME280;8065;49.520;11.284;2023-05-07T04:16:05;97499.28;;;15.95;77.99
15932;BME280;8065;49.520;11.284;2023-05-07T04:18:31;97496.72;;;15.83;78.79
15932;BME280;8065;49.520;11.284;2023-05-07T04:20:58;97503.88;;;15.95;78.12
15932;BME280;8065;49.520;11.284;2023-05-07T04:23:24;97502.78;;;15.80;78.48
15932;BME280;8065;49.520;11.284;2023-05-07T04:25:51;97506.13;;;15.93;78.08
15932;BME280;8065;49.520;11.284;2023-05-07T04:28:17;97515.91;;;15.85;78.71
15932;BME280;8065;49.520;11.284;2023-05-07T04:30:44;97513.81;;;15.94;78.43
15932;BME280;8065;49.520;11.284;2023-05-07T04:33:13;97522.28;;;15.96;78.33
15932;BME280;8065;49.520;11.284;2023-05-07T04:35:41;97525.31;;;15.95;78.91
15932;BME280;8065;49.520;11.284;2023-05-07T04:38:07;97525.94;;;15.88;78.84
15932;BME280;8065;49.520;11.284;2023-05-07T04:40:35;97533.97;;;15.88;78.92
15932;BME280;8065;49.520;11.284;2023-05-07T04:43:01;97533.16;;;16.03;78.69
15932;BME280;8065;49.520;11.284;2023-05-07T04:45:28;97536.03;;;15.95;79.08
15932;BME280;8065;49.520;11.284;2023-05-07T04:47:54;97536.69;;;16.08;78.88
15932;BME280;8065;49.520;11.284;2023-05-07T04:50:22;97542.47;;;16.10;78.24
15932;BME280;8065;49.520;11.284;2023-05-07T04:52:49;97542.47;;;16.10;78.61
15932;BME280;8065;49.520;11.284;2023-05-07T04:55:16;97538.66;;;16.11;78.84
15932;BME280;8065;49.520;11.284;2023-05-07T04:57:42;97541.19;;;16.23;78.25
15932;BME280;8065;49.520;11.284;2023-05-07T05:00:09;97543.03;;;16.19;79.06
15932;BME280;8065;49.520;11.284;2023-05-07T05:02:39;97546.50;;;16.19;78.99
15932;BME280;8065;49.520;11.284;2023-05-07T05:05:06;97541.19;;;16.23;79.27
15932;BME280;8065;49.520;11.284;2023-05-07T05:07:34;97542.75;;;16.43;78.37
15932;BME280;8065;49.520;11.284;2023-05-07T05:10:01;97551.03;;;16.57;77.97
15932;BME280;8065;49.520;11.284;2023-05-07T05:12:29;97545.84;;;16.64;77.70
15932;BME280;8065;49.520;11.284;2023-05-07T05:14:55;97546.69;;;16.68;78.24
15932;BME280;8065;49.520;11.284;2023-05-07T05:17:22;97551.34;;;16.71;77.57
15932;BME280;8065;49.520;11.284;2023-05-07T05:19:48;97552.44;;;16.90;76.89
15932;BME280;8065;49.520;11.284;2023-05-07T05:22:15;97549.34;;;16.88;76.48
15932;BME280;8065;49.520;11.284;2023-05-07T05:24:42;97546.66;;;16.88;76.11
15932;BME280;8065;49.520;11.284;2023-05-07T05:27:09;97546.81;;;16.76;76.42
15932;BME280;8065;49.520;11.284;2023-05-07T05:29:35;97544.38;;;16.90;76.08
15932;BME280;8065;49.520;11.284;2023-05-07T05:32:02;97546.66;;;17.11;75.54
15932;BME280;8065;49.520;11.284;2023-05-07T05:34:28;97550.13;;;17.37;74.77
15932;BME280;8065;49.520;11.284;2023-05-07T05:36:55;97541.59;;;17.28;75.18
15932;BME280;8065;49.520;11.284;2023-05-07T05:39:21;97548.94;;;17.09;74.95
15932;BME280;8065;49.520;11.284;2023-05-07T05:41:49;97547.19;;;16.97;75.42
15932;BME280;8065;49.520;11.284;2023-05-07T05:44:16;97556.09;;;17.24;74.61
15932;BME280;8065;49.520;11.284;2023-05-07T05:46:42;97556.75;;;17.44;74.15
15932;BME280;8065;49.520;11.284;2023-05-07T05:49:09;97548.91;;;17.58;73.71
15932;BME280;8065;49.520;11.284;2023-05-07T05:51:35;97556.22;;;17.57;74.48
15932;BME280;8065;49.520;11.284;2023-05-07T05:54:02;97555.75;;;17.52;75.08
15932;BME280;8065;49.520;11.284;2023-05-07T05:56:28;97554.41;;;17.65;74.53
15932;BME280;8065;49.520;11.284;2023-05-07T05:58:56;97554.78;;;17.41;74.17
15932;BME280;8065;49.520;11.284;2023-05-07T06:01:23;97557.09;;;17.65;73.65
15932;BME280;8065;49.520;11.284;2023-05-07T06:03:49;97555.94;;;17.89;72.73
15932;BME280;8065;49.520;11.284;2023-05-07T06:06:16;97553.91;;;17.82;73.41
15932;BME280;8065;49.520;11.284;2023-05-07T06:08:42;97563.75;;;17.71;73.37
15932;BME280;8065;49.520;11.284;2023-05-07T06:11:09;97561.66;;;17.87;72.93
15932;BME280;8065;49.520;11.284;2023-05-07T06:13:35;97558.16;;;17.60;73.77
15932;BME280;8065;49.520;11.284;2023-05-07T06:16:04;97553.75;;;17.72;73.46
15932;BME280;8065;49.520;11.284;2023-05-07T06:18:31;97558.00;;;17.99;73.02
15932;BME280;8065;49.520;11.284;2023-05-07T06:20:57;97551.81;;;17.46;74.15
15932;BME280;8065;49.520;11.284;2023-05-07T06:23:24;97555.00;;;17.55;74.40
15932;BME280;8065;49.520;11.284;2023-05-07T06:25:51;97568.97;;;17.64;73.67
15932;BME280;8065;49.520;11.284;2023-05-07T06:28:17;97552.97;;;17.71;73.94
15932;BME280;8065;49.520;11.284;2023-05-07T06:30:44;97549.13;;;17.98;73.06
15932;BME280;8065;49.520;11.284;2023-05-07T06:33:12;97549.91;;;17.99;73.27
15932;BME280;8065;49.520;11.284;2023-05-07T06:35:38;97557.72;;;18.08;72.70
15932;BME280;8065;49.520;11.284;2023-05-07T06:38:05;97556.06;;;17.99;72.48
15932;BME280;8065;49.520;11.284;2023-05-07T06:40:31;97564.72;;;17.86;73.45
15932;BME280;8065;49.520;11.284;2023-05-07T06:42:58;97564.13;;;17.99;72.99
15932;BME280;8065;49.520;11.284;2023-05-07T06:45:24;97579.22;;;18.08;72.93
15932;BME280;8065;49.520;11.284;2023-05-07T06:47:50;97583.38;;;17.75;73.54
15932;BME280;8065;49.520;11.284;2023-05-07T06:50:18;97583.16;;;17.87;73.36
15932;BME280;8065;49.520;11.284;2023-05-07T06:52:45;97583.72;;;18.30;72.20
15932;BME280;8065;49.520;11.284;2023-05-07T06:55:12;97581.13;;;18.37;72.37
15932;BME280;8065;49.520;11.284;2023-05-07T06:57:38;97578.59;;;18.51;71.55
15932;BME280;8065;49.520;11.284;2023-05-07T07:00:05;97592.72;;;18.11;72.78
15932;BME280;8065;49.520;11.284;2023-05-07T07:02:34;97592.06;;;18.21;73.24
15932;BME280;8065;49.520;11.284;2023-05-07T07:05:00;97584.09;;;17.98;73.81
15932;BME280;8065;49.520;11.284;2023-05-07T07:07:28;97582.44;;;17.90;73.75
15932;BME280;8065;49.520;11.284;2023-05-07T07:09:55;97583.16;;;18.47;71.95
15932;BME280;8065;49.520;11.284;2023-05-07T07:12:21;97584.25;;;18.73;71.71
15932;BME280;8065;49.520;11.284;2023-05-07T07:14:50;97580.41;;;18.74;71.26
15932;BME280;8065;49.520;11.284;2023-05-07T07:17:16;97591.38;;;18.28;72.52
15932;BME280;8065;49.520;11.284;2023-05-07T07:19:42;97583.78;;;18.63;71.88
15932;BME280;8065;49.520;11.284;2023-05-07T07:22:09;97587.13;;;18.90;70.81
15932;BME280;8065;49.520;11.284;2023-05-07T07:24:37;97584.59;;;19.08;70.97
15932;BME280;8065;49.520;11.284;2023-05-07T07:27:04;97593.41;;;19.02;70.80
15932;BME280;8065;49.520;11.284;2023-05-07T07:29:30;97590.78;;;19.12;70.34
15932;BME280;8065;49.520;11.284;2023-05-07T07:31:56;97587.75;;;19.17;70.46
15932;BME280;8065;49.520;11.284;2023-05-07T07:34:23;97584.72;;;19.22;70.26
15932;BME280;8065;49.520;11.284;2023-05-07T07:36:50;97589.66;;;19.54;68.97
15932;BME280;8065;49.520;11.284;2023-05-07T07:39:16;97590.25;;;19.37;69.46
15932;BME280;8065;49.520;11.284;2023-05-07T07:41:44;97592.47;;;19.27;69.63
15932;BME280;8065;49.520;11.284;2023-05-07T07:44:10;97591.00;;;19.33;69.90
15932;BME280;8065;49.520;11.284;2023-05-07T07:46:38;97580.53;;;19.73;69.17
15932;BME280;8065;49.520;11.284;2023-05-07T07:49:04;97586.06;;;19.90;68.68
15932;BME280;8065;49.520;11.284;2023-05-07T07:51:31;97589.09;;;19.85;68.34
15932;BME280;8065;49.520;11.284;2023-05-07T07:53:57;97587.44;;;19.67;68.62
15932;BME280;8065;49.520;11.284;2023-05-07T07:56:24;97592.97;;;19.88;68.65
15932;BME280;8065;49.520;11.284;2023-05-07T07:58:52;97602.41;;;20.22;67.87
15932;BME280;8065;49.520;11.284;2023-05-07T08:01:18;97590.91;;;20.36;68.20
15932;BME280;8065;49.520;11.284;2023-05-07T08:03:45;97599.97;;;20.76;66.63
15932;BME280;8065;49.520;11.284;2023-05-07T08:06:11;97591.88;;;20.79;66.56
15932;BME280;8065;49.520;11.284;2023-05-07T08:08:37;97587.50;;;20.46;67.57
15932;BME280;8065;49.520;11.284;2023-05-07T08:11:04;97594.88;;;20.56;66.71
15932;BME280;8065;49.520;11.284;2023-05-07T08:13:30;97594.03;;;20.38;67.19
15932;BME280;8065;49.520;11.284;2023-05-07T08:15:58;97578.63;;;20.46;67.08
15932;BME280;8065;49.520;11.284;2023-05-07T08:18:26;97586.66;;;20.35;67.79
15932;BME280;8065;49.520;11.284;2023-05-07T08:20:54;97585.28;;;20.70;67.52
15932;BME280;8065;49.520;11.284;2023-05-07T08:23:20;97592.44;;;20.37;67.15
15932;BME280;8065;49.520;11.284;2023-05-07T08:25:47;97591.03;;;20.61;66.69
15932;BME280;8065;49.520;11.284;2023-05-07T08:28:13;97597.56;;;20.56;67.09
15932;BME280;8065;49.520;11.284;2023-05-07T08:30:40;97590.06;;;20.25;67.11
15932;BME280;8065;49.520;11.284;2023-05-07T08:33:08;97588.53;;;20.24;67.45
15932;BME280;8065;49.520;11.284;2023-05-07T08:35:34;97583.38;;;20.88;66.94
15932;BME280;8065;49.520;11.284;2023-05-07T08:38:01;97588.00;;;20.91;66.51
15932;BME280;8065;49.520;11.284;2023-05-07T08:40:28;97592.22;;;20.71;67.32
15932;BME280;8065;49.520;11.284;2023-05-07T08:42:56;97597.66;;;20.92;65.76
15932;BME280;8065;49.520;11.284;2023-05-07T08:45:23;97597.25;;;20.76;67.29
15932;BME280;8065;49.520;11.284;2023-05-07T08:47:52;97601.16;;;21.07;66.34
15932;BME280;8065;49.520;11.284;2023-05-07T08:50:22;97609.66;;;21.05;65.98
15932;BME280;8065;49.520;11.284;2023-05-07T08:52:49;97610.50;;;21.27;66.32
15932;BME280;8065;49.520;11.284;2023-05-07T08:55:16;97612.44;;;21.34;65.09
15932;BME280;8065;49.520;11.284;2023-05-07T08:57:43;97618.09;;;20.89;66.79
15932;BME280;8065;49.520;11.284;2023-05-07T09:00:10;97621.69;;;21.33;65.44
15932;BME280;8065;49.520;11.284;2023-05-07T09:02:37;97618.63;;;21.45;65.90
15932;BME280;8065;49.520;11.284;2023-05-07T09:05:04;97612.84;;;21.64;65.15
15932;BME280;8065;49.520;11.284;2023-05-07T09:07:32;97610.44;;;22.23;63.79
15932;BME280;8065;49.520;11.284;2023-05-07T09:10:01;97607.31;;;22.28;63.94
15932;BME280;8065;49.520;11.284;2023-05-07T09:12:28;97604.56;;;22.42;63.23
15932;BME280;8065;49.520;11.284;2023-05-07T09:14:55;97606.59;;;21.88;62.89
15932;BME280;8065;49.520;11.284;2023-05-07T09:17:21;97605.78;;;22.20;62.14
15932;BME280;8065;49.520;11.284;2023-05-07T09:19:48;97608.53;;;21.95;62.80
15932;BME280;8065;49.520;11.284;2023-05-07T09:22:14;97608.03;;;22.50;62.39
15932;BME280;8065;49.520;11.284;2023-05-07T09:24:47;97608.72;;;22.61;61.18
15932;BME280;8065;49.520;11.284;2023-05-07T09:27:14;97609.44;;;22.79;61.08
15932;BME280;8065;49.520;11.284;2023-05-07T09:29:41;97602.97;;;23.29;59.93
15932;BME280;8065;49.520;11.284;2023-05-07T09:32:08;97605.22;;;23.37;60.01
15932;BME280;8065;49.520;11.284;2023-05-07T09:34:35;97599.03;;;23.37;59.70
15932;BME280;8065;49.520;11.284;2023-05-07T09:37:02;97600.00;;;23.05;59.60
15932;BME280;8065;49.520;11.284;2023-05-07T09:39:38;97597.31;;;23.05;59.59
15932;BME280;8065;49.520;11.284;2023-05-07T09:42:06;97590.09;;;23.40;59.56
15932;BME280;8065;49.520;11.284;2023-05-07T09:44:33;97588.72;;;23.66;59.42
15932;BME280;8065;49.520;11.284;2023-05-07T09:47:00;97585.34;;;23.51;58.92
15932;BME280;8065;49.520;11.284;2023-05-07T09:49:29;97586.00;;;23.17;59.96
15932;BME280;8065;49.520;11.284;2023-05-07T09:51:56;97586.31;;;23.75;58.62
15932;BME280;8065;49.520;11.284;2023-05-07T09:54:24;97592.19;;;23.70;59.00
15932;BME280;8065;49.520;11.284;2023-05-07T09:56:52;97588.94;;;24.23;57.52
15932;BME280;8065;49.520;11.284;2023-05-07T09:59:21;97594.38;;;23.85;58.08
15932;BME280;8065;49.520;11.284;2023-05-07T10:01:49;97593.19;;;23.86;58.14
15932;BME280;8065;49.520;11.284;2023-05-07T10:04:16;97570.91;;;24.40;57.50
15932;BME280;8065;49.520;11.284;2023-05-07T10:06:44;97566.84;;;24.21;56.63
15932;BME280;8065;49.520;11.284;2023-05-07T10:09:11;97571.31;;;24.69;56.40
15932;BME280;8065;49.520;11.284;2023-05-07T10:11:39;97574.16;;;24.58;56.74
15932;BME280;8065;49.520;11.284;2023-05-07T10:14:07;97584.97;;;24.31;56.39
15932;BME280;8065;49.520;11.284;2023-05-07T10:16:36;97583.50;;;24.23;57.88
15932;BME280;8065;49.520;11.284;2023-05-07T10:19:03;97573.47;;;24.50;57.03
15932;BME280;8065;49.520;11.284;2023-05-07T10:21:30;97570.94;;;24.36;56.92
15932;BME280;8065;49.520;11.284;2023-05-07T10:23:59;97559.88;;;24.81;57.14
15932;BME280;8065;49.520;11.284;2023-05-07T10:26:28;97566.06;;;25.12;56.99
15932;BME280;8065;49.520;11.284;2023-05-07T10:28:59;97575.63;;;24.93;55.63
15932;BME280;8065;49.520;11.284;2023-05-07T10:31:53;97578.47;;;24.56;54.81
15932;BME280;8065;49.520;11.284;2023-05-07T10:34:24;97576.34;;;24.02;54.78
15932;BME280;8065;49.520;11.284;2023-05-07T10:36:52;97574.09;;;24.31;55.00
15932;BME280;8065;49.520;11.284;2023-05-07T10:39:21;97576.19;;;24.50;54.28
15932;BME280;8065;49.520;11.284;2023-05-07T10:41:48;97580.75;;;23.89;55.14
15932;BME280;8065;49.520;11.284;2023-05-07T10:44:25;97589.66;;;23.90;56.47
15932;BME280;8065;49.520;11.284;2023-05-07T10:47:05;97581.31;;;24.45;56.05
15932;BME280;8065;49.520;11.284;2023-05-07T10:49:34;97585.31;;;24.67;55.12
15932;BME280;8065;49.520;11.284;2023-05-07T10:52:17;97579.66;;;24.55;54.10
15932;BME280;8065;49.520;11.284;2023-05-07T10:54:45;97583.09;;;24.59;55.56
15932;BME280;8065;49.520;11.284;2023-05-07T10:57:34;97574.91;;;24.89;53.88
15932;BME280;8065;49.520;11.284;2023-05-07T11:00:42;97574.41;;;25.25;54.35
15932;BME280;8065;49.520;11.284;2023-05-07T11:03:11;97563.00;;;25.57;53.23
15932;BME280;8065;49.520;11.284;2023-05-07T11:05:38;97572.16;;;25.20;53.34
15932;BME280;8065;49.520;11.284;2023-05-07T11:08:04;97566.56;;;25.77;52.75
15932;BME280;8065;49.520;11.284;2023-05-07T11:10:51;97562.00;;;25.94;52.10
15932;BME280;8065;49.520;11.284;2023-05-07T11:13:19;97558.81;;;25.75;52.21
15932;BME280;8065;49.520;11.284;2023-05-07T11:16:05;97556.44;;;25.77;52.62
15932;BME280;8065;49.520;11.284;2023-05-07T11:18:48;97550.47;;;26.45;51.63
15932;BME280;8065;49.520;11.284;2023-05-07T11:21:31;97546.97;;;26.25;50.82
15932;BME280;8065;49.520;11.284;2023-05-07T11:23:59;97543.13;;;26.23;50.08
15932;BME280;8065;49.520;11.284;2023-05-07T11:26:27;97541.44;;;26.29;49.36
15932;BME280;8065;49.520;11.284;2023-05-07T11:28:54;97543.25;;;26.16;50.36
15932;BME280;8065;49.520;11.284;2023-05-07T11:31:24;97527.69;;;26.16;49.72
15932;BME280;8065;49.520;11.284;2023-05-07T11:33:53;97538.75;;;27.01;48.80
15932;BME280;8065;49.520;11.284;2023-05-07T11:36:21;97534.75;;;27.22;48.92
15932;BME280;8065;49.520;11.284;2023-05-07T11:38:48;97545.09;;;26.42;48.89
15932;BME280;8065;49.520;11.284;2023-05-07T11:41:16;97548.41;;;26.69;47.22
15932;BME280;8065;49.520;11.284;2023-05-07T11:43:56;97536.63;;;27.41;47.33
15932;BME280;8065;49.520;11.284;2023-05-07T11:46:23;97534.19;;;26.94;47.47
15932;BME280;8065;49.520;11.284;2023-05-07T11:48:49;97539.13;;;26.67;45.34
15932;BME280;8065;49.520;11.284;2023-05-07T11:51:21;97537.31;;;26.01;47.23
15932;BME280;8065;49.520;11.284;2023-05-07T11:53:48;97534.81;;;26.10;49.00
15932;BME280;8065;49.520;11.284;2023-05-07T11:56:16;97531.72;;;25.68;49.69
15932;BME280;8065;49.520;11.284;2023-05-07T11:58:44;97533.00;;;25.84;47.68
15932;BME280;8065;49.520;11.284;2023-05-07T12:01:12;97539.28;;;25.34;48.13
15932;BME280;8065;49.520;11.284;2023-05-07T12:03:40;97542.88;;;25.51;47.68
15932;BME280;8065;49.520;11.284;2023-05-07T12:06:09;97538.09;;;25.82;46.91
15932;BME280;8065;49.520;11.284;2023-05-07T12:08:38;97534.97;;;26.42;46.87
15932;BME280;8065;49.520;11.284;2023-05-07T12:11:07;97535.38;;;26.21;47.46
15932;BME280;8065;49.520;11.284;2023-05-07T12:13:34;97531.97;;;26.73;47.14
15932;BME280;8065;49.520;11.284;2023-05-07T12:16:01;97522.41;;;26.65;47.99
15932;BME280;8065;49.520;11.284;2023-05-07T12:18:29;97531.97;;;26.89;47.05
15932;BME280;8065;49.520;11.284;2023-05-07T12:20:56;97530.50;;;26.32;48.87
15932;BME280;8065;49.520;11.284;2023-05-07T12:23:23;97532.63;;;26.61;48.81
15932;BME280;8065;49.520;11.284;2023-05-07T12:25:51;97534.94;;;26.03;49.19
15932;BME280;8065;49.520;11.284;2023-05-07T12:28:18;97525.69;;;26.76;49.92
15932;BME280;8065;49.520;11.284;2023-05-07T12:30:46;97524.94;;;27.08;49.31
15932;BME280;8065;49.520;11.284;2023-05-07T12:33:16;97521.84;;;26.73;48.98
15932;BME280;8065;49.520;11.284;2023-05-07T12:35:43;97528.88;;;26.15;50.54
15932;BME280;8065;49.520;11.284;2023-05-07T12:38:11;97530.34;;;26.39;49.84
15932;BME280;8065;49.520;11.284;2023-05-07T12:40:39;97515.25;;;26.87;48.54
15932;BME280;8065;49.520;11.284;2023-05-07T12:43:08;97510.34;;;27.31;47.85
15932;BME280;8065;49.520;11.284;2023-05-07T12:45:41;97513.56;;;27.58;48.32
15932;BME280;8065;49.520;11.284;2023-05-07T12:48:09;97524.25;;;27.20;47.97
15932;BME280;8065;49.520;11.284;2023-05-07T12:50:36;97520.31;;;27.70;47.11
15932;BME280;8065;49.520;11.284;2023-05-07T12:53:03;97522.88;;;27.61;46.49
15932;BME280;8065;49.520;11.284;2023-05-07T12:55:31;97518.88;;;27.49;46.37
15932;BME280;8065;49.520;11.284;2023-05-07T12:58:00;97519.63;;;27.95;46.56
15932;BME280;8065;49.520;11.284;2023-05-07T13:00:38;97512.34;;;27.75;47.30
15932;BME280;8065;49.520;11.284;2023-05-07T13:03:05;97519.91;;;28.13;47.35